CheckWX is a tool to help pilots better visualize weather data.  It is not intended as a substitute for an official pre-flight weather briefing.

04:27:14 UTC

KRAC METAR
Batten International Airport
Racine, Wisconsin, USA
Current

34 mins ago

KRAC 020353Z AUTO 20005KT 10SM CLR 18/12 A2996 RMK AO2 SLP142 T01830122
Observed
Jun-2 @ 03:53 UTC
Wind
  • 200° at 5 KTS
Visibility
Flight Rules
VFR
Cloud Levels
  • Clear skies
Temperature
18°C / 64°F
Dewpoint
12°C / 54°F
Humidity
68%
Altimeter
29.96" Hg
Pressure
1014.52 hPa
Previous

2 hours ago

KRAC 020253Z AUTO 18006KT 10SM CLR 20/12 A2997 RMK AO2 SLP145 T02000122 53001
Observed
Jun-2 @ 02:53 UTC
Wind
  • 180° at 6 KTS
Visibility
Flight Rules
VFR
Cloud Levels
  • Clear skies
Temperature
20°C / 68°F
Dewpoint
12°C / 54°F
Humidity
60%
Altimeter
29.97" Hg
Pressure
1014.92 hPa
Previous

3 hours ago

KRAC 020153Z AUTO 21008KT 10SM CLR 22/12 A2997 RMK AO2 SLP147 T02170122
Observed
Jun-2 @ 01:53 UTC
Wind
  • 210° at 8 KTS
Visibility
Flight Rules
VFR
Cloud Levels
  • Clear skies
Temperature
22°C / 72°F
Dewpoint
12°C / 54°F
Humidity
53%
Altimeter
29.97" Hg
Pressure
1014.92 hPa